This is the latest recevied weather packets stored in our database for station/object AA6HF. If no packets are shown the sender has not sent any weather packets the latest 10 day(s).
| Time | Temp. | Humidity | Pressure | Rain* | Wind** | Luminosity | Snow |
|---|---|---|---|---|---|---|---|
| 1777857636 | 26.67° C | 30% | 1004.5 hPa | 0 mm | - | - | - |
| 1777857336 | 26.67° C | 31% | 1004.5 hPa | 0 mm | - | - | - |
| 1777857036 | 27.22° C | 30% | 1004.5 hPa | 0 mm | - | - | - |
| 1777856736 | 27.22° C | 29% | 1004.4 hPa | 0 mm | - | - | - |
| 1777856436 | 28.33° C | 27% | 1004.3 hPa | 0 mm | - | - | - |
| 1777856136 | 29.44° C | 25% | 1004.2 hPa | 0 mm | - | - | - |
| 1777855836 | 30.56° C | 16% | 1004.1 hPa | 0 mm | - | - | - |
| 1777855536 | 30.56° C | 16% | 1003.6 hPa | 0 mm | - | - | - |
| 1777855236 | 30° C | 17% | 1003.7 hPa | 0 mm | - | - | - |
| 1777854936 | 30.56° C | 16% | 1003.6 hPa | 0 mm | - | - | - |
| 1777854636 | 30.56° C | 15% | 1003.5 hPa | 0 mm | - | - | - |
| 1777854336 | 30.56° C | 15% | 1003.5 hPa | 0 mm | - | - | - |
| 1777854036 | 30.56° C | 14% | 1003.7 hPa | 0 mm | - | - | - |
| 1777853736 | 30.56° C | 18% | 1003.8 hPa | 0 mm | - | - | - |
| 1777853436 | 30.56° C | 18% | 1003.8 hPa | 0 mm | - | - | - |
| 1777853137 | 30.56° C | 18% | 1003.7 hPa | 0 mm | - | - | - |
| 1777852837 | 30.56° C | 18% | 1004.1 hPa | 0 mm | - | - | - |
| 1777852537 | 31.11° C | 18% | 1004.3 hPa | 0 mm | - | - | - |
| 1777852237 | 31.11° C | 17% | 1004.4 hPa | 0 mm | - | - | - |
| 1777851937 | 31.11° C | 18% | 1004.3 hPa | 0 mm | - | - | - |
| 1777851637 | 30.56° C | 19% | 1004.2 hPa | 0 mm | - | - | - |
| 1777851337 | 31.11° C | 23% | 1004.2 hPa | 0 mm | - | - | - |
| 1777851037 | 31.11° C | 21% | 1004 hPa | 0 mm | - | - | - |
| 1777850737 | 30.56° C | 23% | 1004.1 hPa | 0 mm | - | - | - |
| 1777850437 | 30.56° C | 21% | 1004.2 hPa | 0 mm | - | - | - |
* Rain latest hour (hover to see other rain measurements)
** Current wind speed in m/s (hover to see current wind gust speed)